Time;durP1;ratioP1;P1;durP2;ratioP2;P2;SDS_P1;SDS_P2;PMS_P1;PMS_P2;Temp;Humidity;BMP_temperature;BMP_pressure;BME280_temperature;BME280_humidity;BME280_pressure;Samples;Min_cycle;Max_cycle;Signal;HPM_P1;HPM_P2
2023/06/14 00:03:25;;;;;;;1.60;1.48;;;;;;;14.20;64.15;99964.28;10420472;28;20111;-67
2023/06/14 00:08:27;;;;;;;2.10;1.38;;;;;;;13.98;65.37;99960.00;10419911;28;20045;-67
2023/06/14 00:13:29;;;;;;;1.90;1.70;;;;;;;14.00;65.80;99958.16;10419826;28;20065;-67
2023/06/14 00:18:31;;;;;;;1.60;1.50;;;;;;;13.74;66.84;99956.72;10419461;28;20049;-68
2023/06/14 00:23:33;;;;;;;3.08;1.80;;;;;;;13.76;67.28;99949.56;10417896;28;20046;-68
2023/06/14 00:28:34;;;;;;;1.58;1.48;;;;;;;13.61;68.13;99939.72;10418790;28;20462;-69
2023/06/14 00:33:36;;;;;;;1.60;1.50;;;;;;;13.52;68.82;99945.44;10418005;28;20045;-69
2023/06/14 00:38:39;;;;;;;3.20;1.90;;;;;;;13.47;68.69;99952.69;10418874;28;20041;-70
2023/06/14 00:43:43;;;;;;;1.75;1.40;;;;;;;13.41;69.05;99948.53;10419724;28;20043;-71
2023/06/14 00:48:45;;;;;;;1.95;1.85;;;;;;;13.25;70.44;99948.38;10418616;28;20065;-70
2023/06/14 00:53:47;;;;;;;3.92;2.10;;;;;;;13.13;71.92;99952.34;10418301;28;20033;-70
2023/06/14 00:58:51;;;;;;;2.80;1.83;;;;;;;12.99;72.31;99952.09;10419998;28;20037;-70
2023/06/14 01:03:53;;;;;;;2.85;1.80;;;;;;;13.04;73.14;99936.94;10416359;28;20045;-70
2023/06/14 01:09:23;;;;;;;2.78;1.73;;;;;;;13.04;72.40;99946.63;10416774;28;20053;-69
2023/06/14 01:14:28;;;;;;;2.60;1.80;;;;;;;13.13;73.48;99941.81;10415719;28;20506;-69
2023/06/14 01:19:31;;;;;;;3.38;1.90;;;;;;;12.87;74.76;99944.72;10417776;28;20075;-70
2023/06/14 01:24:34;;;;;;;2.40;2.15;;;;;;;12.93;74.24;99935.69;10417252;28;20068;-69
2023/06/14 01:29:36;;;;;;;2.70;1.63;;;;;;;12.80;75.27;99936.22;10416659;28;20049;-69
2023/06/14 01:34:38;;;;;;;2.20;1.80;;;;;;;12.74;75.73;99932.97;10416771;28;20038;-69
2023/06/14 01:39:43;;;;;;;3.20;1.85;;;;;;;12.67;76.24;99932.38;10416345;28;20499;-70
2023/06/14 01:44:46;;;;;;;3.28;2.00;;;;;;;12.51;77.57;99926.03;10415740;28;20411;-70
2023/06/14 01:49:48;;;;;;;3.20;2.38;;;;;;;12.56;77.33;99921.41;10414575;28;20055;-70
2023/06/14 01:54:50;;;;;;;3.45;1.95;;;;;;;12.50;77.65;99922.53;10415047;28;20068;-70
2023/06/14 01:59:52;;;;;;;2.45;1.73;;;;;;;12.31;78.67;99926.84;10415273;28;20148;-70
2023/06/14 02:04:57;;;;;;;3.75;2.00;;;;;;;12.29;79.41;99932.16;10414733;28;20045;-69
2023/06/14 02:09:59;;;;;;;3.47;1.85;;;;;;;12.21;79.46;99933.38;10414937;28;20063;-70
2023/06/14 02:15:01;;;;;;;2.22;2.13;;;;;;;12.25;79.67;99935.84;10415727;28;20037;-69
2023/06/14 02:20:04;;;;;;;2.65;2.20;;;;;;;12.27;79.21;99941.94;10414501;28;20534;-70
2023/06/14 02:25:07;;;;;;;2.58;1.83;;;;;;;12.12;80.66;99940.72;10415227;28;20045;-69
2023/06/14 02:30:09;;;;;;;1.73;1.63;;;;;;;12.23;80.29;99947.38;10415536;28;20041;-69
2023/06/14 02:35:11;;;;;;;2.45;1.90;;;;;;;12.38;78.70;99946.75;10415079;28;20034;-69
2023/06/14 02:40:13;;;;;;;2.47;2.28;;;;;;;12.45;78.76;99953.50;10413698;28;20409;-69
2023/06/14 02:45:15;;;;;;;2.47;2.28;;;;;;;12.10;80.74;99953.13;10413004;28;20069;-69
2023/06/14 02:50:17;;;;;;;2.60;2.40;;;;;;;12.02;82.00;99960.47;10413690;28;20089;-69
2023/06/14 02:55:19;;;;;;;2.60;2.05;;;;;;;11.97;81.85;99957.16;10419320;28;20041;-69
2023/06/14 03:00:21;;;;;;;2.50;2.30;;;;;;;11.89;82.87;99953.09;10422727;28;20049;-69
2023/06/14 03:05:23;;;;;;;2.20;2.00;;;;;;;11.99;82.27;99959.72;10420908;28;20045;-68
2023/06/14 03:10:28;;;;;;;3.22;2.08;;;;;;;12.06;81.95;99951.53;10423684;28;20091;-69
2023/06/14 03:15:33;;;;;;;2.70;2.40;;;;;;;11.78;84.06;99956.97;10420446;28;20041;-69
2023/06/14 03:20:35;;;;;;;2.50;2.30;;;;;;;11.56;86.05;99961.34;10420496;28;20049;-69
2023/06/14 03:25:38;;;;;;;2.83;2.35;;;;;;;11.66;86.04;99964.47;10420185;28;20042;-69
2023/06/14 03:30:40;;;;;;;3.58;2.80;;;;;;;11.59;86.11;99969.94;10421774;28;20120;-70
2023/06/14 03:35:43;;;;;;;3.08;2.50;;;;;;;11.75;85.61;99978.16;10420218;28;20042;-70
2023/06/14 03:40:45;;;;;;;4.70;2.53;;;;;;;11.74;84.83;99970.31;10420121;28;20055;-73
2023/06/14 03:45:47;;;;;;;2.83;2.30;;;;;;;11.69;85.30;99986.28;10419747;28;20049;-70
2023/06/14 03:50:49;;;;;;;3.42;2.63;;;;;;;11.65;85.72;100002.25;10421746;28;20045;-69
2023/06/14 03:55:54;;;;;;;3.75;2.70;;;;;;;11.69;85.38;99996.81;10420802;28;20045;-69
2023/06/14 04:01:03;;;;;;;6.65;2.85;;;;;;;11.86;84.60;100005.00;10420233;28;20073;-69
2023/06/14 04:06:06;;;;;;;2.80;2.60;;;;;;;11.94;84.52;100017.00;10417705;28;20100;-69
2023/06/14 04:11:08;;;;;;;5.35;3.47;;;;;;;11.75;85.12;100012.38;10419821;28;20045;-69
2023/06/14 04:16:10;;;;;;;4.88;3.33;;;;;;;11.83;85.53;100025.31;10418587;28;20129;-69
2023/06/14 04:21:12;;;;;;;3.75;3.40;;;;;;;11.93;85.60;100020.56;10418447;28;20434;-69
2023/06/14 04:26:14;;;;;;;4.35;3.95;;;;;;;11.84;85.62;100022.63;10418055;28;20642;-69
2023/06/14 04:31:18;;;;;;;5.00;4.50;;;;;;;11.92;85.33;100019.69;10417585;28;20511;-68
2023/06/14 04:36:20;;;;;;;5.57;3.92;;;;;;;12.67;80.81;100005.38;10420046;28;20048;-68
2023/06/14 04:41:30;;;;;;;8.00;4.53;;;;;;;12.39;83.05;100014.34;10417787;28;20449;-68
2023/06/14 04:46:45;;;;;;;5.75;4.32;;;;;;;12.16;83.97;100023.16;10416888;28;20136;-68
2023/06/14 04:51:57;;;;;;;5.70;3.47;;;;;;;12.32;83.98;100045.38;10416422;28;20078;-68
2023/06/14 04:57:02;;;;;;;5.63;4.38;;;;;;;12.72;80.94;100043.81;10400643;28;20566;-68
2023/06/14 05:02:05;;;;;;;5.53;3.88;;;;;;;13.05;78.97;100044.19;10416878;28;20072;-68
2023/06/14 05:07:08;;;;;;;5.53;3.83;;;;;;;12.86;78.41;100045.88;10416125;28;20041;-68
2023/06/14 05:12:10;;;;;;;5.32;4.93;;;;;;;12.95;77.49;100040.22;10417181;28;20042;-68
2023/06/14 05:17:12;;;;;;;5.75;4.53;;;;;;;13.62;74.33;100050.56;10416792;28;20120;-68
2023/06/14 05:22:14;;;;;;;8.70;4.32;;;;;;;13.71;73.87;100053.75;10417876;28;20054;-68
2023/06/14 05:27:16;;;;;;;5.25;3.95;;;;;;;14.14;72.27;100060.59;10417469;28;20083;-68
2023/06/14 05:32:19;;;;;;;4.18;3.88;;;;;;;14.36;70.97;100055.16;10417905;28;20085;-68
2023/06/14 05:37:21;;;;;;;5.22;4.50;;;;;;;14.59;70.26;100062.88;10417446;28;20057;-68
2023/06/14 05:42:23;;;;;;;5.82;5.10;;;;;;;15.07;67.87;100063.22;10417562;28;20045;-67
2023/06/14 05:47:25;;;;;;;5.43;4.20;;;;;;;14.59;68.60;100062.88;10416418;28;20066;-68
2023/06/14 05:52:27;;;;;;;4.55;4.15;;;;;;;14.35;69.35;100070.19;10415914;28;20414;-68
2023/06/14 05:57:29;;;;;;;5.05;3.92;;;;;;;14.43;70.05;100076.88;10415166;28;20125;-68
2023/06/14 06:02:31;;;;;;;4.07;3.38;;;;;;;14.44;70.71;100074.19;10415351;28;20399;-68
2023/06/14 06:07:33;;;;;;;4.78;4.30;;;;;;;14.56;69.57;100065.66;10414500;28;20111;-68
2023/06/14 06:12:38;;;;;;;9.00;4.22;;;;;;;15.73;65.67;100070.50;10414706;28;20051;-68
2023/06/14 06:17:40;;;;;;;5.28;4.68;;;;;;;16.05;65.48;100076.72;10415110;28;20042;-68
2023/06/14 06:22:58;;;;;;;4.45;3.90;;;;;;;16.42;62.89;100087.97;10414446;28;20179;-68
2023/06/14 06:28:00;;;;;;;7.00;4.18;;;;;;;16.90;60.15;100095.03;10419264;28;20069;-68
2023/06/14 06:33:03;;;;;;;6.60;4.63;;;;;;;17.07;59.46;100102.03;10427999;28;20049;-68
2023/06/14 06:38:05;;;;;;;4.43;4.03;;;;;;;17.32;57.99;100107.66;10427853;28;20041;-68
2023/06/14 06:43:06;;;;;;;6.90;4.35;;;;;;;17.58;57.67;100094.63;10427423;28;20128;-68
2023/06/14 06:48:15;;;;;;;5.03;4.63;;;;;;;18.31;55.46;100103.44;10426495;28;20415;-69
2023/06/14 06:53:18;;;;;;;4.03;3.60;;;;;;;18.73;52.89;100103.53;10427994;28;20048;-69
2023/06/14 06:58:31;;;;;;;5.30;3.45;;;;;;;18.79;54.05;100097.78;10427908;28;20038;-69
2023/06/14 07:03:32;;;;;;;4.10;3.75;;;;;;;18.84;54.31;100099.19;10428474;28;20053;-67
2023/06/14 07:08:35;;;;;;;3.80;2.70;;;;;;;19.74;50.90;100086.13;10427345;28;20041;-68
2023/06/14 07:13:37;;;;;;;5.10;3.00;;;;;;;19.55;49.12;100098.03;10425874;28;20049;-68
2023/06/14 07:18:39;;;;;;;5.90;3.60;;;;;;;19.42;51.15;100106.00;10428376;28;20071;-68
2023/06/14 07:23:40;;;;;;;3.22;3.00;;;;;;;18.95;52.39;100105.63;10428485;28;20120;-68
2023/06/14 07:28:44;;;;;;;4.07;3.28;;;;;;;19.63;49.55;100095.72;10426568;28;20053;-68
2023/06/14 07:33:47;;;;;;;3.95;2.90;;;;;;;19.92;49.12;100084.84;10427109;28;20543;-68
2023/06/14 07:38:48;;;;;;;3.25;2.95;;;;;;;19.94;49.00;100101.63;10424704;28;20136;-68
2023/06/14 07:43:50;;;;;;;3.60;3.30;;;;;;;20.29;47.92;100103.63;10420853;28;20047;-69
2023/06/14 07:48:52;;;;;;;4.93;2.97;;;;;;;20.26;48.95;100101.16;10419331;28;20052;-67
2023/06/14 07:53:54;;;;;;;6.38;3.30;;;;;;;21.12;45.61;100098.50;10420136;28;20087;-67
2023/06/14 07:58:56;;;;;;;6.60;2.65;;;;;;;21.29;45.29;100105.22;10419400;28;20080;-70
2023/06/14 08:03:58;;;;;;;2.80;2.15;;;;;;;21.49;43.87;100104.63;10419077;28;20080;-67
2023/06/14 08:09:00;;;;;;;2.00;1.80;;;;;;;21.03;42.66;100108.06;10419033;28;20437;-68
2023/06/14 08:14:02;;;;;;;1.73;1.40;;;;;;;20.73;42.18;100107.63;10417773;28;20053;-68
2023/06/14 08:19:04;;;;;;;2.42;2.17;;;;;;;20.81;42.22;100113.25;10418624;28;20076;-68
2023/06/14 08:24:06;;;;;;;3.15;2.10;;;;;;;21.36;41.62;100107.38;10420345;28;20132;-68
2023/06/14 08:29:08;;;;;;;2.70;1.60;;;;;;;21.21;42.55;100110.31;10419180;28;20061;-69
2023/06/14 08:34:10;;;;;;;1.83;1.73;;;;;;;21.04;41.70;100116.91;10419057;28;20045;-69
2023/06/14 08:39:12;;;;;;;1.40;1.30;;;;;;;20.57;41.69;100107.88;10419061;28;20049;-70
2023/06/14 08:44:16;;;;;;;1.55;1.10;;;;;;;20.52;41.92;100102.00;10418257;28;20407;-70
2023/06/14 08:49:18;;;;;;;3.50;1.00;;;;;;;20.61;41.25;100110.22;10417980;28;20057;-70
2023/06/14 08:54:20;;;;;;;1.80;1.10;;;;;;;20.91;40.39;100100.94;10417879;28;20497;-70
2023/06/14 08:59:25;;;;;;;2.10;1.27;;;;;;;21.14;39.16;100099.22;10417481;28;20049;-70
2023/06/14 09:04:29;;;;;;;2.45;1.33;;;;;;;21.24;39.22;100120.75;10417623;28;20133;-69
2023/06/14 09:09:31;;;;;;;3.05;1.20;;;;;;;21.59;39.59;100119.00;10417301;28;20403;-70
2023/06/14 09:14:38;;;;;;;2.58;1.65;;;;;;;21.77;37.50;100110.53;10416734;28;20561;-70
2023/06/14 09:19:40;;;;;;;1.98;1.88;;;;;;;22.38;38.60;100120.00;10416720;28;20045;-69
2023/06/14 09:24:42;;;;;;;2.10;1.80;;;;;;;22.39;37.16;100119.00;10415995;28;20047;-70
2023/06/14 09:29:44;;;;;;;3.35;1.98;;;;;;;22.59;38.43;100112.06;10416602;28;20119;-70
2023/06/14 09:34:49;;;;;;;2.13;2.03;;;;;;;22.21;38.32;100114.25;10415636;28;20057;-70
2023/06/14 09:39:51;;;;;;;2.33;2.08;;;;;;;21.21;38.82;100115.66;10416954;28;20044;-69
2023/06/14 09:44:54;;;;;;;2.13;2.00;;;;;;;21.63;40.27;100103.56;10415398;28;20127;-69
2023/06/14 09:49:56;;;;;;;2.50;2.30;;;;;;;21.98;38.95;100111.53;10414592;28;20045;-69
2023/06/14 09:54:59;;;;;;;3.30;3.00;;;;;;;23.27;37.51;100102.03;10414945;28;20053;-69
2023/06/14 10:00:05;;;;;;;2.72;2.53;;;;;;;23.67;36.99;100099.56;10415124;28;20511;-69
2023/06/14 10:05:15;;;;;;;3.65;2.30;;;;;;;23.51;35.92;100092.94;10413663;28;20106;-69
2023/06/14 10:10:17;;;;;;;3.45;2.15;;;;;;;24.29;35.56;100091.53;10414036;28;20056;-68
2023/06/14 10:15:57;;;;;;;3.53;2.10;;;;;;;23.70;35.62;100105.66;10415761;28;20042;-69
2023/06/14 10:21:23;;;;;;;2.25;1.80;;;;;;;22.91;38.82;100100.59;10375498;28;20504;-68
2023/06/14 10:26:27;;;;;;;4.10;1.92;;;;;;;21.93;38.79;100100.34;10414500;28;20045;-69
2023/06/14 10:31:56;;;;;;;6.80;3.92;;;;;;;22.07;40.08;100096.59;10414699;28;20418;-70
2023/06/14 10:37:03;;;;;;;4.32;2.58;;;;;;;21.86;39.69;100101.78;10414532;28;20111;-71
2023/06/14 10:42:06;;;;;;;2.22;1.95;;;;;;;22.70;38.78;100105.81;10414819;28;20060;-70
2023/06/14 10:47:25;;;;;;;3.00;1.85;;;;;;;23.15;37.74;100095.88;10427307;23;20052;-73
2023/06/14 10:52:29;;;;;;;2.40;1.90;;;;;;;23.15;38.23;100095.88;10415291;28;20047;-72
2023/06/14 10:57:33;;;;;;;1.83;1.73;;;;;;;21.89;41.15;100090.84;10415485;28;20042;-73
2023/06/14 11:03:07;;;;;;;2.53;1.88;;;;;;;21.96;39.93;100078.69;10416021;28;20507;-72
2023/06/14 11:08:18;;;;;;;1.65;1.55;;;;;;;22.05;41.39;100086.00;10415300;28;20041;-73
2023/06/14 11:13:25;;;;;;;2.10;1.80;;;;;;;21.84;40.66;100082.34;10416347;28;20049;-73
2023/06/14 11:18:28;;;;;;;3.78;1.90;;;;;;;21.40;41.25;100071.41;10421224;28;20045;-74
2023/06/14 11:23:30;;;;;;;2.47;1.90;;;;;;;21.22;42.32;100072.78;10422339;28;20124;-74
2023/06/14 11:28:41;;;;;;;2.00;1.90;;;;;;;20.51;44.00;100074.47;10404891;28;20076;-74
2023/06/14 11:33:50;;;;;;;3.55;1.83;;;;;;;20.54;44.36;100071.56;10422623;28;20095;-74
2023/06/14 11:38:58;;;;;;;2.30;2.10;;;;;;;20.96;43.08;100076.53;10422583;28;20045;-73
2023/06/14 11:44:02;;;;;;;2.70;2.50;;;;;;;20.79;44.75;100070.63;10422999;28;20046;-73
2023/06/14 11:49:06;;;;;;;2.40;2.20;;;;;;;20.28;47.00;100070.75;10422176;28;20037;-73
2023/06/14 11:54:08;;;;;;;2.38;2.17;;;;;;;20.06;47.24;100075.91;10421666;28;20057;-72
2023/06/14 11:59:13;;;;;;;3.33;2.28;;;;;;;20.03;48.65;100071.63;10420258;28;20045;-72
2023/06/14 12:04:23;;;;;;;2.13;1.92;;;;;;;20.11;47.83;100073.75;10420316;28;20057;-72
2023/06/14 12:09:26;;;;;;;2.42;2.17;;;;;;;20.17;48.79;100068.81;10421241;28;20042;-73
2023/06/14 12:14:31;;;;;;;2.25;2.05;;;;;;;20.29;47.79;100072.44;10420889;28;20056;-73
2023/06/14 12:19:40;;;;;;;2.00;1.85;;;;;;;19.99;48.29;100077.28;10419650;28;20546;-73
2023/06/14 12:24:43;;;;;;;3.05;1.70;;;;;;;20.35;47.82;100071.16;10418713;28;20055;-73
2023/06/14 12:29:44;;;;;;;6.40;2.15;;;;;;;20.76;48.63;100069.97;10428625;28;20041;-73
2023/06/14 12:34:46;;;;;;;4.20;1.80;;;;;;;21.09;47.25;100070.16;10444183;28;20049;-71
2023/06/14 12:39:50;;;;;;;4.50;1.98;;;;;;;20.31;48.04;100070.50;10432196;28;20420;-73
2023/06/14 12:44:52;;;;;;;2.28;2.08;;;;;;;20.31;48.64;100069.66;10421296;28;20115;-73
2023/06/14 12:49:54;;;;;;;2.33;2.13;;;;;;;20.86;47.88;100063.00;10460820;28;20069;-72
2023/06/14 12:54:55;;;;;;;3.83;2.30;;;;;;;21.16;46.61;100058.06;10459148;28;20498;-72
2023/06/14 12:59:59;;;;;;;2.53;2.22;;;;;;;21.71;46.13;100062.84;10459379;28;20410;-73
2023/06/14 13:05:03;;;;;;;2.17;2.08;;;;;;;21.81;45.98;100061.16;10444751;28;20045;-73
2023/06/14 13:10:05;;;;;;;2.08;1.88;;;;;;;22.42;43.67;100053.66;10390493;28;20056;-73
2023/06/14 13:15:07;;;;;;;2.33;2.15;;;;;;;22.59;43.10;100039.72;10459793;28;20041;-73
2023/06/14 13:20:09;;;;;;;4.50;1.52;;;;;;;22.96;43.55;100036.72;10440587;28;20465;-73
2023/06/14 13:25:11;;;;;;;3.28;1.67;;;;;;;23.20;42.41;100033.81;10418040;28;20072;-75
2023/06/14 13:30:13;;;;;;;2.28;1.50;;;;;;;22.57;41.97;100043.50;10418406;28;20038;-72
2023/06/14 13:35:17;;;;;;;3.40;2.13;;;;;;;21.47;45.59;100036.16;10419491;28;20046;-72
2023/06/14 13:40:19;;;;;;;3.50;2.33;;;;;;;20.55;48.09;100037.72;10457819;28;20556;-73
2023/06/14 13:45:21;;;;;;;3.83;2.13;;;;;;;20.31;48.72;100037.63;10459123;28;20064;-73
2023/06/14 13:50:40;;;;;;;2.92;1.92;;;;;;;21.18;46.61;100031.19;10458732;28;20036;-73
2023/06/14 13:55:59;;;;;;;2.72;1.75;;;;;;;21.95;42.72;100033.31;10458702;28;20032;-73
2023/06/14 14:01:19;;;;;;;2.55;1.58;;;;;;;22.55;42.03;100037.44;10457970;28;20028;-73
2023/06/14 14:06:38;;;;;;;2.80;1.95;;;;;;;22.89;41.42;100038.19;10457023;28;20416;-73
2023/06/14 14:11:58;;;;;;;2.58;1.85;;;;;;;22.81;41.61;100036.13;10434068;28;20045;-73
2023/06/14 14:17:18;;;;;;;3.80;1.60;;;;;;;22.38;43.05;100025.41;10416142;28;20037;-73
2023/06/14 14:22:37;;;;;;;2.47;1.63;;;;;;;21.81;44.12;100023.69;10416011;28;20040;-73
2023/06/14 14:27:56;;;;;;;1.52;1.40;;;;;;;21.95;42.36;100028.81;10415999;28;20030;-72
2023/06/14 14:33:16;;;;;;;6.25;1.48;;;;;;;22.26;41.06;100023.72;10415023;28;20391;-73
2023/06/14 14:38:18;;;;;;;1.40;1.20;;;;;;;22.73;39.52;100017.16;10452922;28;20391;-74
2023/06/14 14:43:20;;;;;;;2.42;1.63;;;;;;;23.57;39.64;100020.78;10457842;28;20128;-73
2023/06/14 14:48:22;;;;;;;3.03;1.70;;;;;;;23.21;38.02;100022.13;10459129;28;20128;-72
2023/06/14 14:53:24;;;;;;;1.83;1.58;;;;;;;22.42;40.15;100008.09;10464413;28;20045;-72
2023/06/14 14:58:25;;;;;;;2.97;1.63;;;;;;;22.26;40.55;100011.16;10465663;28;20037;-73
2023/06/14 15:03:27;;;;;;;1.95;1.60;;;;;;;22.61;40.60;100016.34;10465419;28;20040;-74
2023/06/14 15:08:30;;;;;;;3.95;1.33;;;;;;;23.19;39.83;99999.06;10463033;28;20132;-74
2023/06/14 15:13:32;;;;;;;1.75;1.55;;;;;;;23.51;38.71;99993.66;10465142;28;20045;-73
2023/06/14 15:18:34;;;;;;;1.67;1.40;;;;;;;23.85;37.33;100007.69;10462600;28;20052;-73
2023/06/14 15:23:36;;;;;;;1.77;1.30;;;;;;;23.58;35.32;100006.38;10463967;28;20049;-73
2023/06/14 15:28:38;;;;;;;1.92;1.50;;;;;;;24.14;34.47;99999.75;10462798;28;20517;-73
2023/06/14 15:33:39;;;;;;;1.55;1.38;;;;;;;23.65;36.07;99998.72;10466309;28;20041;-74
2023/06/14 15:38:42;;;;;;;2.10;1.70;;;;;;;25.32;33.93;99999.75;10463587;28;20116;-73
2023/06/14 15:43:44;;;;;;;2.97;1.60;;;;;;;24.28;34.47;100003.91;10462061;28;20051;-72
2023/06/14 15:48:46;;;;;;;1.90;1.70;;;;;;;22.73;36.67;100008.28;10461868;28;20045;-73
2023/06/14 15:53:47;;;;;;;1.70;1.60;;;;;;;22.24;38.73;100017.63;10462235;28;20049;-73
2023/06/14 15:58:49;;;;;;;2.38;2.13;;;;;;;22.91;38.79;99996.91;10460615;28;20425;-74
2023/06/14 16:03:53;;;;;;;2.53;1.92;;;;;;;23.11;38.35;100002.44;10461076;28;20045;-71
2023/06/14 16:08:55;;;;;;;2.33;2.13;;;;;;;23.41;38.13;99991.75;10461364;28;20094;-73
2023/06/14 16:13:57;;;;;;;2.10;1.95;;;;;;;23.11;36.46;100003.28;10461363;28;20495;-72
2023/06/14 16:18:59;;;;;;;1.92;1.70;;;;;;;23.01;35.78;99999.66;10461090;28;20052;-72
2023/06/14 16:24:01;;;;;;;3.30;1.90;;;;;;;22.95;35.93;99997.50;10447225;28;20037;-73
2023/06/14 16:29:03;;;;;;;2.05;1.95;;;;;;;22.71;35.90;99999.50;10460198;28;20045;-72
2023/06/14 16:34:08;;;;;;;2.10;1.90;;;;;;;22.71;35.79;99994.13;10461299;28;20068;-71
2023/06/14 16:39:11;;;;;;;2.10;1.57;;;;;;;22.39;36.49;99995.81;10460849;28;20041;-72
2023/06/14 16:44:14;;;;;;;3.55;2.15;;;;;;;22.51;35.72;99995.78;10460827;28;20053;-73
2023/06/14 16:49:16;;;;;;;2.50;2.30;;;;;;;22.25;34.88;99997.91;10456501;22;20076;-73
2023/06/14 16:54:18;;;;;;;2.47;2.28;;;;;;;22.19;34.29;100009.13;10418072;28;20053;-72
2023/06/14 16:59:20;;;;;;;2.60;2.40;;;;;;;21.84;35.16;100010.09;10418260;28;20044;-72
2023/06/14 17:04:22;;;;;;;2.90;2.70;;;;;;;21.87;35.36;100009.84;10418861;28;20511;-72
2023/06/14 17:09:23;;;;;;;3.97;2.97;;;;;;;21.71;36.92;100012.03;10416135;28;20088;-72
2023/06/14 17:14:25;;;;;;;2.67;2.47;;;;;;;21.50;38.12;100007.34;10416521;28;20140;-72
2023/06/14 17:19:27;;;;;;;2.70;2.50;;;;;;;21.67;37.36;100016.75;10417820;28;20041;-72
2023/06/14 17:24:29;;;;;;;3.35;3.05;;;;;;;21.38;37.74;100019.00;10416641;28;20049;-72
2023/06/14 17:29:31;;;;;;;3.22;2.92;;;;;;;21.47;37.28;100018.31;10416911;28;20033;-72
2023/06/14 17:34:32;;;;;;;3.40;3.10;;;;;;;21.31;38.32;100017.75;10420007;28;20045;-74
2023/06/14 17:39:36;;;;;;;3.28;2.67;;;;;;;21.13;38.92;100020.00;10417029;28;20033;-73
2023/06/14 17:44:37;;;;;;;2.90;2.70;;;;;;;21.16;38.48;100025.97;10416275;28;20503;-72
2023/06/14 17:49:39;;;;;;;2.50;2.25;;;;;;;20.70;39.62;100014.34;10415807;28;20054;-72
2023/06/14 17:54:41;;;;;;;2.33;2.13;;;;;;;20.74;40.06;100026.50;10415381;28;20049;-73
2023/06/14 17:59:43;;;;;;;2.72;2.47;;;;;;;20.59;40.44;100026.69;10416144;28;20044;-73
2023/06/14 18:04:44;;;;;;;2.67;2.47;;;;;;;20.56;40.60;100034.91;10415842;28;20045;-73
2023/06/14 18:09:46;;;;;;;2.47;2.28;;;;;;;20.38;41.34;100041.56;10415556;28;20042;-72
2023/06/14 18:14:48;;;;;;;2.78;2.58;;;;;;;20.46;41.68;100043.69;10415718;28;20087;-72
2023/06/14 18:19:50;;;;;;;3.45;2.58;;;;;;;20.38;42.26;100037.06;10413853;28;20051;-72
2023/06/14 18:24:52;;;;;;;3.35;2.92;;;;;;;20.05;43.00;100050.16;10414260;28;20116;-72
2023/06/14 18:29:54;;;;;;;2.97;2.63;;;;;;;20.11;43.42;100047.06;10414816;28;20116;-72
2023/06/14 18:34:56;;;;;;;2.95;2.75;;;;;;;19.98;43.60;100049.75;10414974;28;20111;-73
2023/06/14 18:39:58;;;;;;;2.90;2.70;;;;;;;19.90;43.79;100058.28;10415418;28;20053;-72
2023/06/14 18:44:59;;;;;;;2.95;2.00;;;;;;;19.85;44.58;100056.91;10414960;28;20441;-72
2023/06/14 18:50:02;;;;;;;3.67;2.33;;;;;;;19.89;45.09;100061.06;10413462;28;20041;-73
2023/06/14 18:55:04;;;;;;;2.22;2.03;;;;;;;19.75;45.61;100062.03;10412999;28;20046;-72
2023/06/14 19:00:07;;;;;;;4.03;2.42;;;;;;;19.58;46.25;100062.31;10415020;28;20046;-72
2023/06/14 19:05:08;;;;;;;2.97;2.35;;;;;;;19.59;46.37;100066.69;10412792;28;20442;-72
2023/06/14 19:10:10;;;;;;;2.65;2.45;;;;;;;19.38;47.08;100064.50;10414723;28;20124;-72
2023/06/14 19:15:12;;;;;;;2.42;2.22;;;;;;;19.22;47.28;100071.00;10413695;28;20050;-72
2023/06/14 19:20:14;;;;;;;2.67;2.10;;;;;;;19.04;48.25;100068.59;10413944;28;20076;-72
2023/06/14 19:25:16;;;;;;;3.25;2.95;;;;;;;18.89;49.48;100075.78;10413684;28;20048;-72
2023/06/14 19:30:18;;;;;;;2.97;2.67;;;;;;;18.74;50.52;100076.78;10413550;28;20045;-72
2023/06/14 19:35:21;;;;;;;2.67;2.42;;;;;;;18.60;51.53;100079.47;10416437;28;20046;-72
2023/06/14 19:40:23;;;;;;;2.90;2.70;;;;;;;18.73;52.92;100082.22;10422210;28;20041;-73
2023/06/14 19:45:25;;;;;;;4.60;3.08;;;;;;;18.50;52.77;100081.84;10421012;28;20045;-72
2023/06/14 19:50:27;;;;;;;4.80;4.35;;;;;;;18.26;53.28;100094.91;10421146;28;20056;-72
2023/06/14 19:55:28;;;;;;;4.68;4.22;;;;;;;18.23;53.58;100095.06;10420867;28;20046;-72
2023/06/14 20:00:32;;;;;;;4.32;3.88;;;;;;;18.00;54.61;100093.84;10420427;28;20053;-72
2023/06/14 20:05:35;;;;;;;4.25;3.63;;;;;;;18.01;55.86;100103.53;10420517;28;20479;-71
2023/06/14 20:10:36;;;;;;;3.78;2.83;;;;;;;17.86;55.75;100108.00;10420090;28;20095;-72
2023/06/14 20:15:38;;;;;;;3.55;3.17;;;;;;;17.78;55.80;100104.09;10420404;28;20056;-72
2023/06/14 20:20:43;;;;;;;4.15;3.75;;;;;;;17.77;56.29;100110.34;10417923;28;20560;-72
2023/06/14 20:25:46;;;;;;;3.90;3.60;;;;;;;17.67;57.00;100111.84;10418169;28;20557;-72
2023/06/14 20:30:52;;;;;;;3.90;3.53;;;;;;;17.29;59.42;100117.59;10419485;28;20084;-72
2023/06/14 20:35:54;;;;;;;4.85;3.80;;;;;;;17.01;60.84;100128.97;10419306;28;20112;-72
2023/06/14 20:40:58;;;;;;;4.13;3.83;;;;;;;16.97;60.36;100122.97;10419085;28;20065;-72
2023/06/14 20:46:00;;;;;;;4.72;4.03;;;;;;;17.31;60.56;100113.91;10417713;28;20380;-72
2023/06/14 20:51:02;;;;;;;4.00;3.70;;;;;;;17.32;60.62;100112.97;10418307;28;20049;-73
2023/06/14 20:56:06;;;;;;;3.70;3.40;;;;;;;17.10;61.05;100109.84;10418541;28;20476;-72
2023/06/14 21:01:08;;;;;;;3.65;3.35;;;;;;;16.93;61.71;100113.47;10417670;28;20059;-72
2023/06/14 21:06:10;;;;;;;3.20;3.00;;;;;;;16.73;62.09;100116.38;10418094;28;20095;-72
2023/06/14 21:11:11;;;;;;;3.70;3.38;;;;;;;16.80;62.57;100120.41;10418253;28;20053;-72
2023/06/14 21:16:13;;;;;;;3.97;3.40;;;;;;;16.23;64.96;100126.13;10417830;28;20099;-72
2023/06/14 21:21:15;;;;;;;3.95;3.25;;;;;;;15.92;66.64;100121.59;10417224;28;20051;-73
2023/06/14 21:26:17;;;;;;;4.32;3.50;;;;;;;16.12;67.33;100118.75;10415431;28;20087;-71
2023/06/14 21:31:19;;;;;;;4.20;3.58;;;;;;;16.19;66.07;100121.91;10416889;28;20041;-71
2023/06/14 21:36:21;;;;;;;4.70;4.05;;;;;;;15.75;67.47;100117.16;10416250;28;20450;-71
2023/06/14 21:41:23;;;;;;;3.42;3.10;;;;;;;16.00;67.82;100115.91;10416325;28;20045;-71
2023/06/14 21:46:25;;;;;;;4.20;3.90;;;;;;;15.75;68.52;100108.34;10416316;28;20048;-71
2023/06/14 21:51:27;;;;;;;3.80;3.50;;;;;;;15.51;69.39;100121.91;10415832;28;20038;-71
2023/06/14 21:56:28;;;;;;;3.95;3.65;;;;;;;15.65;69.38;100115.94;10416031;28;20124;-71
2023/06/14 22:01:30;;;;;;;3.40;3.10;;;;;;;15.42;69.33;100116.22;10415571;28;20124;-71
2023/06/14 22:06:32;;;;;;;3.50;3.20;;;;;;;15.45;69.34;100114.28;10414036;28;20112;-71
2023/06/14 22:11:34;;;;;;;5.53;3.50;;;;;;;15.60;67.98;100115.28;10415159;28;20128;-71
2023/06/14 22:16:36;;;;;;;3.53;3.22;;;;;;;15.60;68.46;100118.78;10415482;28;20046;-71
2023/06/14 22:21:40;;;;;;;3.80;3.50;;;;;;;15.44;69.23;100114.34;10415047;28;20392;-71
2023/06/14 22:26:48;;;;;;;3.30;3.00;;;;;;;15.20;70.44;100119.94;10414747;28;20045;-71
2023/06/14 22:31:51;;;;;;;3.25;2.95;;;;;;;15.04;71.19;100125.09;10415245;28;20038;-71
2023/06/14 22:36:54;;;;;;;3.58;3.28;;;;;;;14.91;72.36;100121.34;10414995;28;20380;-71
2023/06/14 22:41:56;;;;;;;4.93;4.30;;;;;;;14.87;72.63;100130.34;10414628;28;20046;-71
2023/06/14 22:46:59;;;;;;;4.63;4.22;;;;;;;14.55;74.19;100110.72;10414191;28;20545;-70
2023/06/14 22:52:04;;;;;;;5.82;4.55;;;;;;;14.24;76.42;100114.75;10427881;23;20042;-70
2023/06/14 22:57:07;;;;;;;4.47;4.07;;;;;;;14.26;76.20;100118.19;10417338;28;20048;-70
2023/06/14 23:02:11;;;;;;;5.78;5.28;;;;;;;14.14;77.87;100124.03;10417468;28;20041;-70
2023/06/14 23:07:14;;;;;;;5.05;4.65;;;;;;;14.12;77.88;100120.59;10416045;28;20449;-70
2023/06/14 23:12:16;;;;;;;7.10;5.78;;;;;;;14.45;76.86;100122.63;10421630;28;20080;-70
2023/06/14 23:17:18;;;;;;;5.30;4.82;;;;;;;14.57;75.41;100127.41;10424005;28;20049;-70
2023/06/14 23:22:21;;;;;;;4.95;4.55;;;;;;;14.28;76.42;100133.97;10424542;28;20073;-70